createdAt,value
2018-09-25T00:00:06.936Z,100.00
2018-09-25T00:02:42.128Z,100.00
2018-09-25T00:05:17.521Z,100.00
2018-09-25T00:07:52.693Z,100.00
2018-09-25T00:10:28.108Z,100.00
2018-09-25T00:13:03.245Z,100.00
2018-09-25T00:15:38.520Z,100.00
2018-09-25T00:18:13.614Z,100.00
2018-09-25T00:20:49.213Z,100.00
2018-09-25T00:23:24.346Z,100.00
2018-09-25T00:25:59.857Z,100.00
2018-09-25T00:28:35.107Z,100.00
2018-09-25T00:31:10.643Z,100.00
2018-09-25T00:33:45.673Z,100.00
2018-09-25T00:36:21.176Z,100.00
2018-09-25T00:38:56.354Z,100.00
2018-09-25T00:41:32.420Z,100.00
2018-09-25T00:44:07.578Z,100.00
2018-09-25T00:46:42.604Z,100.00
2018-09-25T00:49:17.669Z,100.00
2018-09-25T00:51:52.910Z,100.00
2018-09-25T00:54:28.080Z,100.00
2018-09-25T00:57:03.270Z,100.00
2018-09-25T00:59:38.684Z,100.00
2018-09-25T01:02:14.063Z,100.00
2018-09-25T01:04:49.717Z,100.00
2018-09-25T01:07:24.892Z,100.00
2018-09-25T01:10:00.276Z,100.00
2018-09-25T01:12:35.389Z,100.00
2018-09-25T01:15:11.046Z,100.00
2018-09-25T01:17:46.265Z,100.00
2018-09-25T01:20:21.917Z,100.00
2018-09-25T01:22:57.084Z,100.00
2018-09-25T01:25:32.287Z,100.00
2018-09-25T01:28:07.486Z,100.00
2018-09-25T01:30:43.202Z,100.00
2018-09-25T01:33:18.330Z,100.00
2018-09-25T01:35:53.499Z,100.00
2018-09-25T01:38:29.043Z,100.00
2018-09-25T01:41:04.369Z,100.00
2018-09-25T01:43:40.634Z,100.00
2018-09-25T01:46:15.780Z,100.00
2018-09-25T01:48:51.615Z,100.00
2018-09-25T01:51:26.590Z,100.00
2018-09-25T01:54:03.486Z,100.00
2018-09-25T01:56:38.808Z,100.00
2018-09-25T01:59:13.935Z,100.00
2018-09-25T02:01:49.236Z,100.00
2018-09-25T02:04:24.311Z,100.00
2018-09-25T02:06:59.525Z,100.00
2018-09-25T02:09:34.680Z,100.00
2018-09-25T02:12:09.691Z,100.00
2018-09-25T02:14:44.947Z,100.00
2018-09-25T02:17:20.051Z,100.00
2018-09-25T02:19:55.240Z,100.00
2018-09-25T02:22:30.400Z,100.00
2018-09-25T02:25:05.545Z,100.00
2018-09-25T02:27:40.572Z,100.00
2018-09-25T02:30:15.738Z,100.00
2018-09-25T02:32:50.864Z,100.00
2018-09-25T02:35:26.022Z,100.00
2018-09-25T02:38:01.026Z,100.00
2018-09-25T02:40:36.195Z,100.00
2018-09-25T02:43:11.287Z,100.00
2018-09-25T02:45:46.435Z,100.00
2018-09-25T02:48:21.547Z,100.00
2018-09-25T02:50:56.743Z,100.00
2018-09-25T02:53:31.762Z,100.00
2018-09-25T02:56:06.938Z,100.00
2018-09-25T02:58:42.124Z,100.00
2018-09-25T03:01:17.366Z,100.00
2018-09-25T03:03:52.417Z,100.00
2018-09-25T03:06:27.517Z,100.00
2018-09-25T03:09:02.595Z,100.00
2018-09-25T03:11:37.654Z,100.00
2018-09-25T03:14:12.944Z,100.00
2018-09-25T03:16:48.237Z,100.00
2018-09-25T03:19:23.410Z,100.00
2018-09-25T03:21:58.565Z,100.00
2018-09-25T03:24:33.768Z,100.00
2018-09-25T03:27:09.121Z,100.00
2018-09-25T03:29:44.335Z,100.00
2018-09-25T03:32:19.647Z,100.00
2018-09-25T03:34:54.804Z,100.00
2018-09-25T03:37:30.045Z,100.00
2018-09-25T03:40:05.275Z,100.00
2018-09-25T03:42:40.330Z,100.00
2018-09-25T03:45:15.899Z,100.00
2018-09-25T03:47:50.927Z,100.00
2018-09-25T03:50:25.939Z,100.00
2018-09-25T03:53:01.173Z,100.00
2018-09-25T03:55:36.232Z,100.00
2018-09-25T03:58:11.505Z,100.00
2018-09-25T04:00:46.502Z,100.00
2018-09-25T04:03:21.674Z,100.00
2018-09-25T04:05:56.842Z,100.00
2018-09-25T04:08:31.898Z,100.00
2018-09-25T04:11:07.147Z,100.00
2018-09-25T04:13:42.366Z,100.00
2018-09-25T04:16:17.571Z,100.00
2018-09-25T04:18:52.805Z,100.00
2018-09-25T04:21:27.864Z,100.00
2018-09-25T04:24:02.890Z,100.00
2018-09-25T04:26:38.165Z,100.00
2018-09-25T04:29:13.418Z,100.00
2018-09-25T04:31:48.549Z,100.00
2018-09-25T04:34:23.759Z,100.00
2018-09-25T04:36:58.837Z,100.00
2018-09-25T04:39:33.947Z,100.00
2018-09-25T04:42:09.107Z,100.00
2018-09-25T04:44:44.447Z,100.00
2018-09-25T04:47:19.518Z,100.00
2018-09-25T04:49:54.510Z,100.00
2018-09-25T04:52:29.657Z,100.00
2018-09-25T04:55:04.927Z,100.00
2018-09-25T04:57:39.914Z,100.00
2018-09-25T05:00:15.078Z,100.00
2018-09-25T05:02:50.033Z,100.00
2018-09-25T05:05:25.321Z,100.00
2018-09-25T05:08:00.535Z,100.00
2018-09-25T05:10:35.738Z,100.00
2018-09-25T05:13:11.033Z,100.00
2018-09-25T05:15:46.017Z,100.00
2018-09-25T05:18:21.084Z,100.00
2018-09-25T05:20:56.263Z,100.00
2018-09-25T05:23:31.344Z,100.00
2018-09-25T05:26:06.632Z,100.00
2018-09-25T05:28:41.879Z,100.00
2018-09-25T05:31:16.933Z,100.00
2018-09-25T05:33:52.100Z,100.00
2018-09-25T05:36:27.342Z,100.00
2018-09-25T05:39:02.419Z,100.00
2018-09-25T05:41:37.626Z,100.00
2018-09-25T05:44:12.776Z,100.00
2018-09-25T05:46:47.831Z,100.00
2018-09-25T05:49:22.860Z,100.00
2018-09-25T05:51:58.071Z,100.00
2018-09-25T05:54:33.295Z,100.00
2018-09-25T05:57:08.436Z,100.00
2018-09-25T05:59:43.481Z,100.00
2018-09-25T06:02:18.724Z,100.00
2018-09-25T06:04:53.813Z,100.00
2018-09-25T06:07:28.929Z,100.00
2018-09-25T06:10:04.154Z,100.00
2018-09-25T06:12:39.239Z,100.00
2018-09-25T06:15:14.588Z,100.00
2018-09-25T06:17:49.869Z,100.00
2018-09-25T06:20:25.020Z,100.00
2018-09-25T06:23:00.155Z,100.00
2018-09-25T06:25:35.338Z,100.00
2018-09-25T06:28:10.509Z,100.00
2018-09-25T06:30:45.636Z,100.00
2018-09-25T06:33:20.814Z,100.00
2018-09-25T06:35:56.999Z,100.00
2018-09-25T06:38:32.200Z,100.00
2018-09-25T06:41:08.330Z,100.00
2018-09-25T06:43:43.633Z,100.00
2018-09-25T06:46:19.215Z,100.00
2018-09-25T06:48:54.570Z,100.00
2018-09-25T06:51:30.067Z,100.00
2018-09-25T06:54:05.220Z,100.00
2018-09-25T06:56:40.563Z,100.00
2018-09-25T06:59:15.801Z,100.00
2018-09-25T07:01:50.945Z,100.00
2018-09-25T07:04:26.817Z,100.00
2018-09-25T07:07:02.163Z,100.00
2018-09-25T07:09:38.193Z,98.84
2018-09-25T07:12:13.634Z,94.43
2018-09-25T07:14:48.705Z,86.48
2018-09-25T07:17:23.987Z,88.03
2018-09-25T07:19:59.130Z,91.62
2018-09-25T07:22:34.243Z,88.88
2018-09-25T07:25:09.645Z,83.71
2018-09-25T07:27:44.706Z,82.33
2018-09-25T07:30:20.115Z,77.47
2018-09-25T07:32:55.192Z,77.52
2018-09-25T07:35:30.384Z,72.46
2018-09-25T07:38:05.545Z,70.51
2018-09-25T07:40:40.605Z,68.64
2018-09-25T07:43:15.817Z,68.61
2018-09-25T07:45:50.874Z,66.30
2018-09-25T07:48:25.945Z,65.39
2018-09-25T07:51:01.023Z,63.67
2018-09-25T07:53:36.218Z,66.01
2018-09-25T07:56:11.412Z,63.52
2018-09-25T07:58:46.449Z,60.11
2018-09-25T08:01:21.702Z,65.80
2018-09-25T08:03:56.772Z,64.33
2018-09-25T08:06:32.141Z,59.59
2018-09-25T08:09:07.320Z,64.38
2018-09-25T08:11:42.535Z,62.94
2018-09-25T08:14:17.775Z,59.11
2018-09-25T08:16:52.943Z,63.33
2018-09-25T08:19:28.103Z,59.64
2018-09-25T08:22:03.238Z,58.35
2018-09-25T08:24:38.453Z,56.94
2018-09-25T08:27:13.718Z,57.03
2018-09-25T08:29:49.011Z,55.72
2018-09-25T08:32:24.078Z,57.15
2018-09-25T08:34:59.149Z,54.68
2018-09-25T08:37:34.181Z,52.59
2018-09-25T08:40:09.331Z,52.24
2018-09-25T08:42:44.530Z,51.53
2018-09-25T08:45:26.523Z,51.87
2018-09-25T08:48:01.689Z,51.58
2018-09-25T08:50:36.879Z,50.25
2018-09-25T08:53:12.051Z,51.52
2018-09-25T08:55:47.034Z,52.79
2018-09-25T08:58:22.225Z,55.44
2018-09-25T09:00:57.356Z,55.54
2018-09-25T09:03:32.510Z,54.83
2018-09-25T09:06:07.694Z,56.66
2018-09-25T09:08:42.955Z,55.20
2018-09-25T09:11:18.100Z,50.40
2018-09-25T09:13:53.436Z,51.78
2018-09-25T09:16:28.588Z,52.02
2018-09-25T09:19:03.954Z,52.84
2018-09-25T09:21:39.130Z,53.61
2018-09-25T09:24:14.530Z,57.46
2018-09-25T09:26:49.787Z,56.88
2018-09-25T09:29:24.864Z,57.54
2018-09-25T09:32:00.112Z,59.11
2018-09-25T09:34:45.412Z,58.93
2018-09-25T09:37:20.756Z,60.19
2018-09-25T09:39:55.927Z,60.50
2018-09-25T09:42:31.075Z,60.99
2018-09-25T09:45:06.356Z,61.71
2018-09-25T09:47:41.465Z,55.36
2018-09-25T09:50:16.868Z,58.19
2018-09-25T09:52:51.823Z,59.01
2018-09-25T09:55:27.113Z,59.61
2018-09-25T09:58:02.167Z,59.41
2018-09-25T10:00:37.261Z,59.19
2018-09-25T10:03:12.571Z,60.25
2018-09-25T10:05:47.785Z,64.18
2018-09-25T10:08:22.881Z,67.94
2018-09-25T10:10:58.082Z,66.05
2018-09-25T10:13:33.193Z,66.51
2018-09-25T10:16:08.234Z,72.20
2018-09-25T10:18:43.604Z,73.87
2018-09-25T10:21:18.761Z,74.03
2018-09-25T10:23:54.052Z,75.48
2018-09-25T10:26:29.125Z,72.83
2018-09-25T10:29:04.362Z,67.55
2018-09-25T10:31:39.629Z,63.67
2018-09-25T10:34:14.875Z,63.96
2018-09-25T10:36:50.135Z,68.37
2018-09-25T10:39:25.408Z,65.84
2018-09-25T10:42:00.638Z,65.07
2018-09-25T10:44:35.713Z,64.25
2018-09-25T10:47:10.861Z,61.43
2018-09-25T10:49:46.116Z,58.10
2018-09-25T10:52:21.243Z,62.50
2018-09-25T10:54:56.425Z,54.99
2018-09-25T10:57:31.471Z,53.78
2018-09-25T11:00:06.610Z,55.25
2018-09-25T11:02:41.872Z,54.05
2018-09-25T11:05:17.002Z,53.32
2018-09-25T11:07:52.171Z,52.57
2018-09-25T11:10:27.305Z,55.09
2018-09-25T11:13:02.359Z,54.78
2018-09-25T11:15:37.578Z,53.32
2018-09-25T11:18:12.781Z,52.42
2018-09-25T11:20:48.044Z,55.89
2018-09-25T11:23:37.519Z,58.25
2018-09-25T11:26:12.600Z,58.85
2018-09-25T11:28:47.697Z,53.65
2018-09-25T11:31:22.818Z,53.80
2018-09-25T11:33:57.886Z,55.78
2018-09-25T11:36:32.912Z,52.54
2018-09-25T11:39:08.000Z,51.69
2018-09-25T11:41:43.179Z,52.64
2018-09-25T11:44:18.441Z,53.97
2018-09-25T11:46:53.878Z,52.81
2018-09-25T11:49:28.980Z,53.73
2018-09-25T11:52:04.226Z,52.86
2018-09-25T11:54:39.275Z,54.80
2018-09-25T11:57:14.501Z,52.87
2018-09-25T11:59:49.556Z,53.77
2018-09-25T12:02:24.763Z,50.13
2018-09-25T12:04:59.849Z,51.00
2018-09-25T12:07:34.932Z,49.25
2018-09-25T12:10:10.028Z,50.62
2018-09-25T12:12:45.188Z,52.05
2018-09-25T12:15:20.328Z,50.17
2018-09-25T12:17:55.514Z,48.46
2018-09-25T12:20:30.789Z,48.17
2018-09-25T12:23:06.088Z,48.19
2018-09-25T12:25:41.428Z,47.73
2018-09-25T12:28:16.588Z,46.27
2018-09-25T12:30:51.574Z,44.79
2018-09-25T12:33:26.617Z,44.30
2018-09-25T12:36:01.851Z,43.99
2018-09-25T12:38:37.071Z,43.08
2018-09-25T12:41:12.496Z,42.92
2018-09-25T12:43:47.719Z,43.08
2018-09-25T12:46:22.899Z,42.08
2018-09-25T12:48:58.016Z,42.53
2018-09-25T12:51:33.071Z,41.52
2018-09-25T12:54:08.325Z,40.46
2018-09-25T12:56:43.413Z,42.63
2018-09-25T12:59:18.580Z,37.56
2018-09-25T13:01:53.834Z,43.00
2018-09-25T13:04:28.923Z,40.86
2018-09-25T13:07:04.037Z,42.71
2018-09-25T13:09:39.282Z,42.59
2018-09-25T13:12:15.338Z,42.98
2018-09-25T13:14:50.556Z,46.45
2018-09-25T13:17:25.665Z,45.92
2018-09-25T13:20:00.790Z,49.10
2018-09-25T13:22:35.870Z,48.82
2018-09-25T13:25:11.148Z,48.14
2018-09-25T13:27:46.411Z,45.97
2018-09-25T13:30:22.318Z,44.23
2018-09-25T13:32:57.490Z,45.50
2018-09-25T13:35:32.566Z,46.80
2018-09-25T13:38:07.719Z,46.57
2018-09-25T13:40:43.156Z,43.84
2018-09-25T13:43:18.442Z,42.68
2018-09-25T13:45:53.747Z,41.19
2018-09-25T13:48:28.982Z,44.73
2018-09-25T13:51:04.033Z,41.30
2018-09-25T13:53:39.240Z,45.84
2018-09-25T13:56:14.519Z,46.17
2018-09-25T13:58:49.652Z,46.52
2018-09-25T14:01:24.788Z,48.52
2018-09-25T14:03:59.998Z,44.91
2018-09-25T14:06:35.060Z,44.65
2018-09-25T14:09:12.650Z,48.93
2018-09-25T14:11:48.175Z,47.50
2018-09-25T14:14:23.371Z,46.02
2018-09-25T14:16:58.528Z,44.51
2018-09-25T14:19:33.738Z,44.53
2018-09-25T14:22:09.061Z,47.08
2018-09-25T14:24:44.288Z,45.73
2018-09-25T14:27:19.437Z,46.37
2018-09-25T14:29:54.420Z,44.60
2018-09-25T14:32:29.511Z,48.63
2018-09-25T14:35:04.772Z,46.40
2018-09-25T14:37:39.802Z,47.32
2018-09-25T14:40:15.036Z,45.25
2018-09-25T14:42:50.123Z,47.70
2018-09-25T14:45:25.200Z,49.56
2018-09-25T14:48:00.372Z,50.43
2018-09-25T14:50:35.564Z,51.00
2018-09-25T14:53:10.742Z,49.42
2018-09-25T14:55:46.018Z,49.16
2018-09-25T14:58:21.274Z,54.21
2018-09-25T15:00:56.513Z,55.61
2018-09-25T15:03:31.734Z,54.61
2018-09-25T15:06:07.327Z,55.76
2018-09-25T15:08:42.492Z,57.88
2018-09-25T15:11:17.811Z,58.60
2018-09-25T15:13:53.066Z,58.92
2018-09-25T15:16:28.329Z,60.55
2018-09-25T15:19:03.571Z,60.37
2018-09-25T15:21:38.747Z,60.40
2018-09-25T15:24:13.873Z,59.11
2018-09-25T15:26:49.216Z,57.47
2018-09-25T15:29:24.307Z,61.01
2018-09-25T15:31:59.543Z,59.54
2018-09-25T15:34:34.805Z,58.14
2018-09-25T15:37:09.847Z,50.66
2018-09-25T15:39:45.064Z,46.87
2018-09-25T15:42:20.197Z,44.95
2018-09-25T15:44:55.317Z,44.23
2018-09-25T15:47:30.578Z,43.08
2018-09-25T15:50:05.697Z,43.62
2018-09-25T15:52:41.049Z,43.36
2018-09-25T15:55:16.395Z,45.76
2018-09-25T15:57:51.572Z,47.61
2018-09-25T16:00:26.687Z,48.58
2018-09-25T16:03:01.923Z,49.04
2018-09-25T16:05:37.040Z,49.76
2018-09-25T16:08:12.558Z,50.17
2018-09-25T16:10:47.594Z,50.09
2018-09-25T16:13:22.891Z,50.17
2018-09-25T16:15:58.113Z,50.56
2018-09-25T16:18:33.291Z,51.35
2018-09-25T16:21:08.413Z,51.78
2018-09-25T16:23:43.755Z,51.55
2018-09-25T16:26:18.979Z,52.82
2018-09-25T16:28:54.022Z,52.71
2018-09-25T16:31:29.033Z,52.42
2018-09-25T16:34:04.336Z,52.93
2018-09-25T16:36:39.546Z,52.52
2018-09-25T16:39:16.129Z,52.20
2018-09-25T16:41:51.088Z,53.68
2018-09-25T16:44:26.377Z,55.35
2018-09-25T16:47:01.594Z,56.29
2018-09-25T16:49:36.910Z,56.64
2018-09-25T16:52:12.092Z,56.64
2018-09-25T16:54:47.348Z,58.54
2018-09-25T16:57:22.481Z,59.01
2018-09-25T16:59:57.661Z,59.97
2018-09-25T17:02:32.884Z,62.87
2018-09-25T17:05:07.956Z,62.50
2018-09-25T17:07:43.052Z,63.60
2018-09-25T17:10:18.344Z,66.48
2018-09-25T17:12:53.400Z,68.95
2018-09-25T17:15:28.529Z,69.15
2018-09-25T17:18:03.776Z,72.75
2018-09-25T17:20:38.900Z,76.63
2018-09-25T17:23:14.155Z,78.83
2018-09-25T17:25:49.304Z,80.16
2018-09-25T17:28:25.400Z,79.55
2018-09-25T17:31:00.731Z,80.07
2018-09-25T17:33:36.049Z,80.77
2018-09-25T17:36:11.269Z,81.32
2018-09-25T17:38:46.361Z,81.76
2018-09-25T17:41:21.512Z,83.04
2018-09-25T17:43:56.801Z,84.79
2018-09-25T17:46:32.073Z,84.77
2018-09-25T17:49:07.284Z,86.37
2018-09-25T17:51:42.522Z,87.54
2018-09-25T17:54:17.575Z,87.51
2018-09-25T17:56:52.687Z,88.32
2018-09-25T17:59:27.795Z,88.02
2018-09-25T18:02:03.018Z,87.79
2018-09-25T18:04:38.277Z,88.99
2018-09-25T18:07:13.526Z,88.83
2018-09-25T18:09:48.766Z,89.41
2018-09-25T18:12:23.976Z,90.56
2018-09-25T18:14:59.269Z,90.22
2018-09-25T18:17:34.350Z,91.30
2018-09-25T18:20:09.690Z,92.71
2018-09-25T18:22:44.954Z,93.73
2018-09-25T18:25:20.143Z,94.73
2018-09-25T18:27:55.218Z,96.05
2018-09-25T18:30:30.258Z,96.57
2018-09-25T18:33:05.349Z,97.03
2018-09-25T18:35:40.564Z,97.87
2018-09-25T18:38:15.589Z,97.92
2018-09-25T18:40:50.716Z,98.62
2018-09-25T18:43:25.944Z,98.87
2018-09-25T18:46:01.251Z,99.35
2018-09-25T18:48:36.326Z,99.28
2018-09-25T18:51:11.631Z,99.62
2018-09-25T18:53:46.811Z,100.00
2018-09-25T18:56:22.118Z,100.00
2018-09-25T18:58:57.208Z,100.00
2018-09-25T19:01:32.342Z,100.00
2018-09-25T19:04:07.569Z,100.00
2018-09-25T19:06:42.713Z,100.00
2018-09-25T19:09:17.957Z,100.00
2018-09-25T19:11:53.169Z,100.00
2018-09-25T19:14:28.352Z,100.00
2018-09-25T19:17:03.440Z,100.00
2018-09-25T19:19:38.623Z,100.00
2018-09-25T19:22:13.934Z,100.00
2018-09-25T19:24:49.309Z,100.00
2018-09-25T19:27:27.876Z,100.00
2018-09-25T19:30:04.458Z,100.00
2018-09-25T19:32:40.563Z,100.00
2018-09-25T19:35:16.042Z,100.00
2018-09-25T19:37:51.187Z,100.00
2018-09-25T19:40:26.309Z,100.00
2018-09-25T19:43:03.015Z,100.00
2018-09-25T19:45:38.380Z,100.00
2018-09-25T19:48:13.588Z,100.00
2018-09-25T19:50:48.704Z,100.00
2018-09-25T19:53:23.954Z,100.00
2018-09-25T19:55:59.254Z,100.00
2018-09-25T19:58:34.385Z,100.00
2018-09-25T20:01:09.433Z,100.00
2018-09-25T20:03:44.476Z,100.00
2018-09-25T20:06:19.697Z,100.00
2018-09-25T20:08:54.956Z,100.00
2018-09-25T20:11:30.077Z,100.00
2018-09-25T20:14:05.320Z,100.00
2018-09-25T20:16:40.553Z,100.00
2018-09-25T20:19:15.792Z,100.00
2018-09-25T20:21:50.808Z,100.00
2018-09-25T20:24:26.002Z,100.00
2018-09-25T20:27:01.200Z,100.00
2018-09-25T20:29:36.574Z,100.00
2018-09-25T20:32:12.053Z,100.00
2018-09-25T20:34:47.143Z,100.00
2018-09-25T20:37:22.420Z,100.00
2018-09-25T20:39:57.687Z,100.00
2018-09-25T20:42:32.981Z,100.00
2018-09-25T20:45:08.097Z,100.00
2018-09-25T20:47:43.169Z,100.00
2018-09-25T20:50:18.513Z,100.00
2018-09-25T20:52:53.815Z,100.00
2018-09-25T20:55:29.148Z,100.00
2018-09-25T20:58:04.271Z,100.00
2018-09-25T21:00:39.494Z,100.00
2018-09-25T21:03:14.812Z,100.00
2018-09-25T21:05:49.848Z,100.00
2018-09-25T21:08:25.032Z,100.00
2018-09-25T21:11:00.360Z,100.00
2018-09-25T21:13:35.418Z,100.00
2018-09-25T21:16:10.716Z,100.00
2018-09-25T21:18:45.779Z,100.00
2018-09-25T21:21:21.184Z,100.00
2018-09-25T21:23:56.354Z,100.00
2018-09-25T21:26:31.457Z,100.00
2018-09-25T21:29:06.809Z,100.00
2018-09-25T21:31:42.099Z,100.00
2018-09-25T21:34:17.221Z,100.00
2018-09-25T21:36:52.392Z,100.00
2018-09-25T21:39:27.617Z,100.00
2018-09-25T21:42:02.968Z,100.00
2018-09-25T21:44:38.368Z,100.00
2018-09-25T21:47:13.618Z,100.00
2018-09-25T21:49:48.763Z,100.00
2018-09-25T21:52:24.137Z,100.00
2018-09-25T21:54:59.205Z,100.00
2018-09-25T21:57:34.557Z,100.00
2018-09-25T22:00:10.350Z,100.00
2018-09-25T22:02:45.424Z,100.00
2018-09-25T22:05:20.776Z,100.00
2018-09-25T22:07:55.919Z,100.00
2018-09-25T22:10:31.300Z,100.00
2018-09-25T22:13:06.520Z,100.00
2018-09-25T22:15:41.658Z,100.00
2018-09-25T22:18:16.942Z,100.00
2018-09-25T22:20:51.997Z,100.00
2018-09-25T22:23:27.458Z,100.00
2018-09-25T22:26:02.703Z,100.00
2018-09-25T22:28:37.955Z,100.00
2018-09-25T22:31:13.131Z,100.00
2018-09-25T22:33:48.384Z,100.00
2018-09-25T22:36:23.535Z,100.00
2018-09-25T22:38:58.780Z,100.00
2018-09-25T22:41:33.921Z,100.00
2018-09-25T22:44:09.343Z,100.00
2018-09-25T22:46:44.616Z,100.00
2018-09-25T22:49:20.008Z,100.00
2018-09-25T22:51:55.251Z,100.00
2018-09-25T22:54:30.399Z,100.00
2018-09-25T22:57:05.620Z,100.00
2018-09-25T22:59:40.709Z,100.00
2018-09-25T23:02:16.067Z,100.00
2018-09-25T23:04:51.382Z,100.00
2018-09-25T23:07:26.514Z,100.00
2018-09-25T23:10:01.835Z,100.00
2018-09-25T23:12:37.072Z,100.00
2018-09-25T23:15:12.418Z,100.00
2018-09-25T23:17:47.696Z,100.00
2018-09-25T23:20:23.089Z,100.00
2018-09-25T23:22:58.452Z,100.00
2018-09-25T23:25:33.561Z,100.00
2018-09-25T23:28:08.932Z,100.00
2018-09-25T23:30:44.183Z,100.00
2018-09-25T23:33:19.276Z,100.00
2018-09-25T23:35:54.527Z,100.00
2018-09-25T23:38:29.840Z,100.00
2018-09-25T23:41:09.049Z,100.00
2018-09-25T23:44:43.765Z,100.00
2018-09-25T23:47:21.882Z,100.00
2018-09-25T23:50:04.679Z,100.00
2018-09-25T23:52:39.867Z,100.00
2018-09-25T23:55:31.580Z,100.00
2018-09-25T23:58:05.903Z,100.00
